Bearsville, New York
Current Conditions -  °F | °C
As of 5:53 PM on Friday 28 Nov 2014 (Local Time) from KPOU Reporting Station
Clear Clear  
Wind Chill: 19°   Ceiling: Unl
Heat Index: 28°   Visibility: 10mi
Dew Point: 12°   Wind: 9mph
Humidity: 51%   Direction: 280°W
Pressure: 30.23"   Gusts: NA
Location:  42.04°N, 74.16°W
Report Text: KPOU 282253Z 28008KT 10SM CLR M02/M11 A3023 RMK AO2 SLP236 T10221111
Loading
Personal Weather Stations






























Interactive Weather Map New forecast layout! Learn more

10-Day Weather Forecast

Advertisements
Track Severe Weather on mobile